sensor_id;sensor_type;location;lat;lon;timestamp;P1;durP1;ratioP1;P2;durP2;ratioP2
23232;SDS011;11785;49.500;8.288;2024-03-23T00:52:57;13.30;;;8.95;;
23232;SDS011;11785;49.500;8.288;2024-03-23T00:55:23;19.75;;;10.15;;
23232;SDS011;11785;49.500;8.288;2024-03-23T00:57:49;14.57;;;9.95;;
23232;SDS011;11785;49.500;8.288;2024-03-23T01:00:15;14.77;;;10.35;;
23232;SDS011;11785;49.500;8.288;2024-03-23T01:02:40;18.40;;;10.85;;
23232;SDS011;11785;49.500;8.288;2024-03-23T01:05:06;16.75;;;10.25;;
23232;SDS011;11785;49.500;8.288;2024-03-23T01:07:32;16.48;;;10.45;;
23232;SDS011;11785;49.500;8.288;2024-03-23T01:09:57;15.50;;;10.48;;
23232;SDS011;11785;49.500;8.288;2024-03-23T01:12:23;13.65;;;8.90;;
23232;SDS011;11785;49.500;8.288;2024-03-23T01:14:48;15.35;;;9.43;;
23232;SDS011;11785;49.500;8.288;2024-03-23T01:17:14;14.73;;;9.55;;
23232;SDS011;11785;49.500;8.288;2024-03-23T01:19:39;15.25;;;9.88;;
23232;SDS011;11785;49.500;8.288;2024-03-23T01:22:06;15.38;;;9.65;;
23232;SDS011;11785;49.500;8.288;2024-03-23T01:24:32;13.38;;;9.02;;
23232;SDS011;11785;49.500;8.288;2024-03-23T01:26:58;12.40;;;8.85;;
23232;SDS011;11785;49.500;8.288;2024-03-23T01:29:23;17.08;;;9.95;;
23232;SDS011;11785;49.500;8.288;2024-03-23T01:31:49;12.50;;;9.02;;
23232;SDS011;11785;49.500;8.288;2024-03-23T01:34:14;14.88;;;9.40;;
23232;SDS011;11785;49.500;8.288;2024-03-23T01:36:40;17.48;;;9.70;;
23232;SDS011;11785;49.500;8.288;2024-03-23T01:39:06;13.32;;;9.13;;
23232;SDS011;11785;49.500;8.288;2024-03-23T01:41:34;13.38;;;9.45;;
23232;SDS011;11785;49.500;8.288;2024-03-23T01:44:00;14.07;;;9.02;;
23232;SDS011;11785;49.500;8.288;2024-03-23T01:46:31;13.40;;;8.90;;
23232;SDS011;11785;49.500;8.288;2024-03-23T01:48:57;12.15;;;8.68;;
23232;SDS011;11785;49.500;8.288;2024-03-23T01:51:23;15.07;;;9.60;;
23232;SDS011;11785;49.500;8.288;2024-03-23T01:53:49;15.75;;;9.07;;
23232;SDS011;11785;49.500;8.288;2024-03-23T01:56:15;13.98;;;8.80;;
23232;SDS011;11785;49.500;8.288;2024-03-23T01:58:41;11.30;;;9.05;;
23232;SDS011;11785;49.500;8.288;2024-03-23T02:01:07;13.00;;;9.00;;
23232;SDS011;11785;49.500;8.288;2024-03-23T02:03:32;14.35;;;9.48;;
23232;SDS011;11785;49.500;8.288;2024-03-23T02:05:58;14.20;;;9.73;;
23232;SDS011;11785;49.500;8.288;2024-03-23T02:08:23;14.98;;;9.05;;
23232;SDS011;11785;49.500;8.288;2024-03-23T02:10:49;15.98;;;9.40;;
23232;SDS011;11785;49.500;8.288;2024-03-23T02:13:16;15.35;;;10.15;;
23232;SDS011;11785;49.500;8.288;2024-03-23T02:15:42;19.80;;;9.73;;
23232;SDS011;11785;49.500;8.288;2024-03-23T02:18:08;16.80;;;10.05;;
23232;SDS011;11785;49.500;8.288;2024-03-23T02:20:37;17.15;;;10.63;;
23232;SDS011;11785;49.500;8.288;2024-03-23T02:23:03;19.83;;;11.85;;
23232;SDS011;11785;49.500;8.288;2024-03-23T02:25:31;21.80;;;12.98;;
23232;SDS011;11785;49.500;8.288;2024-03-23T02:27:58;21.15;;;11.90;;
23232;SDS011;11785;49.500;8.288;2024-03-23T02:30:24;17.73;;;11.63;;
23232;SDS011;11785;49.500;8.288;2024-03-23T02:32:50;19.95;;;12.23;;
23232;SDS011;11785;49.500;8.288;2024-03-23T02:35:16;18.70;;;12.15;;
23232;SDS011;11785;49.500;8.288;2024-03-23T02:37:41;22.45;;;12.38;;
23232;SDS011;11785;49.500;8.288;2024-03-23T02:40:07;20.45;;;11.77;;
23232;SDS011;11785;49.500;8.288;2024-03-23T02:42:33;20.80;;;11.55;;
23232;SDS011;11785;49.500;8.288;2024-03-23T02:44:58;17.08;;;10.88;;
23232;SDS011;11785;49.500;8.288;2024-03-23T02:47:24;15.60;;;10.13;;
23232;SDS011;11785;49.500;8.288;2024-03-23T02:49:50;17.70;;;10.40;;
23232;SDS011;11785;49.500;8.288;2024-03-23T02:52:15;15.90;;;9.43;;
23232;SDS011;11785;49.500;8.288;2024-03-23T02:54:42;14.02;;;9.63;;
23232;SDS011;11785;49.500;8.288;2024-03-23T02:57:09;17.40;;;9.98;;
23232;SDS011;11785;49.500;8.288;2024-03-23T02:59:35;16.08;;;10.35;;
23232;SDS011;11785;49.500;8.288;2024-03-23T03:02:01;15.23;;;9.73;;
23232;SDS011;11785;49.500;8.288;2024-03-23T03:04:29;15.07;;;9.50;;
23232;SDS011;11785;49.500;8.288;2024-03-23T03:06:55;19.30;;;10.23;;
23232;SDS011;11785;49.500;8.288;2024-03-23T03:09:21;16.45;;;10.50;;
23232;SDS011;11785;49.500;8.288;2024-03-23T03:11:46;17.50;;;10.73;;
23232;SDS011;11785;49.500;8.288;2024-03-23T03:14:12;19.33;;;11.02;;
23232;SDS011;11785;49.500;8.288;2024-03-23T03:16:38;19.20;;;11.80;;
23232;SDS011;11785;49.500;8.288;2024-03-23T03:19:03;18.40;;;11.75;;
23232;SDS011;11785;49.500;8.288;2024-03-23T03:21:29;19.20;;;11.48;;
23232;SDS011;11785;49.500;8.288;2024-03-23T03:23:54;19.50;;;10.93;;
23232;SDS011;11785;49.500;8.288;2024-03-23T03:26:22;19.35;;;11.27;;
23232;SDS011;11785;49.500;8.288;2024-03-23T03:28:48;21.15;;;12.32;;
23232;SDS011;11785;49.500;8.288;2024-03-23T03:31:14;19.73;;;12.32;;
23232;SDS011;11785;49.500;8.288;2024-03-23T03:33:40;18.88;;;11.13;;
23232;SDS011;11785;49.500;8.288;2024-03-23T03:36:05;23.02;;;12.35;;
23232;SDS011;11785;49.500;8.288;2024-03-23T03:38:31;19.67;;;12.30;;
23232;SDS011;11785;49.500;8.288;2024-03-23T03:40:57;23.90;;;12.38;;
23232;SDS011;11785;49.500;8.288;2024-03-23T03:43:24;21.83;;;11.95;;
23232;SDS011;11785;49.500;8.288;2024-03-23T03:45:56;22.60;;;12.57;;
23232;SDS011;11785;49.500;8.288;2024-03-23T03:48:25;20.25;;;11.77;;
23232;SDS011;11785;49.500;8.288;2024-03-23T03:50:51;17.00;;;11.15;;
23232;SDS011;11785;49.500;8.288;2024-03-23T03:53:17;21.42;;;11.60;;
23232;SDS011;11785;49.500;8.288;2024-03-23T03:55:43;20.73;;;11.98;;
23232;SDS011;11785;49.500;8.288;2024-03-23T03:58:09;21.13;;;11.75;;
23232;SDS011;11785;49.500;8.288;2024-03-23T04:00:34;17.02;;;9.65;;
23232;SDS011;11785;49.500;8.288;2024-03-23T04:03:00;17.77;;;11.00;;
23232;SDS011;11785;49.500;8.288;2024-03-23T04:05:26;17.35;;;10.90;;
23232;SDS011;11785;49.500;8.288;2024-03-23T04:07:52;18.83;;;10.63;;
23232;SDS011;11785;49.500;8.288;2024-03-23T04:10:19;17.35;;;10.55;;
23232;SDS011;11785;49.500;8.288;2024-03-23T04:12:45;18.33;;;10.70;;
23232;SDS011;11785;49.500;8.288;2024-03-23T04:15:11;16.58;;;10.10;;
23232;SDS011;11785;49.500;8.288;2024-03-23T04:17:36;18.38;;;9.73;;
23232;SDS011;11785;49.500;8.288;2024-03-23T04:20:02;20.92;;;11.05;;
23232;SDS011;11785;49.500;8.288;2024-03-23T04:22:33;15.70;;;9.98;;
23232;SDS011;11785;49.500;8.288;2024-03-23T04:24:58;18.50;;;9.77;;
23232;SDS011;11785;49.500;8.288;2024-03-23T04:27:24;13.95;;;8.73;;
23232;SDS011;11785;49.500;8.288;2024-03-23T04:29:50;12.02;;;7.68;;
23232;SDS011;11785;49.500;8.288;2024-03-23T04:32:16;13.43;;;7.43;;
23232;SDS011;11785;49.500;8.288;2024-03-23T04:34:42;10.80;;;6.93;;
23232;SDS011;11785;49.500;8.288;2024-03-23T04:37:09;9.55;;;6.10;;
23232;SDS011;11785;49.500;8.288;2024-03-23T04:39:38;10.43;;;6.32;;
23232;SDS011;11785;49.500;8.288;2024-03-23T04:42:04;9.15;;;5.35;;
23232;SDS011;11785;49.500;8.288;2024-03-23T04:44:30;8.15;;;4.47;;
23232;SDS011;11785;49.500;8.288;2024-03-23T04:46:56;7.07;;;4.60;;
23232;SDS011;11785;49.500;8.288;2024-03-23T04:49:22;6.68;;;4.28;;
23232;SDS011;11785;49.500;8.288;2024-03-23T04:51:48;8.15;;;4.50;;
23232;SDS011;11785;49.500;8.288;2024-03-23T04:54:13;6.18;;;3.88;;
23232;SDS011;11785;49.500;8.288;2024-03-23T04:56:39;7.72;;;4.18;;
23232;SDS011;11785;49.500;8.288;2024-03-23T04:59:05;4.80;;;3.38;;
23232;SDS011;11785;49.500;8.288;2024-03-23T05:01:33;6.05;;;3.63;;
23232;SDS011;11785;49.500;8.288;2024-03-23T05:03:59;4.53;;;3.08;;
23232;SDS011;11785;49.500;8.288;2024-03-23T05:06:25;6.65;;;3.20;;
23232;SDS011;11785;49.500;8.288;2024-03-23T05:08:51;3.55;;;2.50;;
23232;SDS011;11785;49.500;8.288;2024-03-23T05:11:16;1.60;;;1.50;;
23232;SDS011;11785;49.500;8.288;2024-03-23T05:13:42;2.35;;;1.52;;
23232;SDS011;11785;49.500;8.288;2024-03-23T05:16:08;2.58;;;1.17;;
23232;SDS011;11785;49.500;8.288;2024-03-23T05:18:34;1.02;;;0.93;;
23232;SDS011;11785;49.500;8.288;2024-03-23T05:21:00;4.53;;;1.20;;
23232;SDS011;11785;49.500;8.288;2024-03-23T05:23:27;1.55;;;1.45;;
23232;SDS011;11785;49.500;8.288;2024-03-23T05:25:54;2.00;;;1.30;;
23232;SDS011;11785;49.500;8.288;2024-03-23T05:28:20;1.60;;;1.48;;
23232;SDS011;11785;49.500;8.288;2024-03-23T05:30:55;2.50;;;1.70;;
23232;SDS011;11785;49.500;8.288;2024-03-23T05:33:21;1.88;;;1.60;;
23232;SDS011;11785;49.500;8.288;2024-03-23T05:35:55;2.05;;;1.70;;
23232;SDS011;11785;49.500;8.288;2024-03-23T05:38:25;3.92;;;1.77;;
23232;SDS011;11785;49.500;8.288;2024-03-23T05:40:55;4.72;;;1.80;;
23232;SDS011;11785;49.500;8.288;2024-03-23T05:43:21;2.20;;;1.77;;
23232;SDS011;11785;49.500;8.288;2024-03-23T05:45:54;2.63;;;1.52;;
23232;SDS011;11785;49.500;8.288;2024-03-23T05:48:30;1.67;;;1.52;;
23232;SDS011;11785;49.500;8.288;2024-03-23T05:50:56;1.88;;;1.20;;
23232;SDS011;11785;49.500;8.288;2024-03-23T05:53:22;1.52;;;1.33;;
23232;SDS011;11785;49.500;8.288;2024-03-23T05:55:48;1.05;;;0.90;;
23232;SDS011;11785;49.500;8.288;2024-03-23T05:58:14;1.23;;;1.05;;
23232;SDS011;11785;49.500;8.288;2024-03-23T06:00:41;1.10;;;1.00;;
23232;SDS011;11785;49.500;8.288;2024-03-23T06:03:07;2.05;;;0.80;;
23232;SDS011;11785;49.500;8.288;2024-03-23T06:05:33;0.80;;;0.80;;
23232;SDS011;11785;49.500;8.288;2024-03-23T06:07:58;0.63;;;0.63;;
23232;SDS011;11785;49.500;8.288;2024-03-23T06:10:24;1.42;;;0.63;;
23232;SDS011;11785;49.500;8.288;2024-03-23T06:12:50;0.75;;;0.55;;
23232;SDS011;11785;49.500;8.288;2024-03-23T06:15:17;0.77;;;0.63;;
23232;SDS011;11785;49.500;8.288;2024-03-23T06:17:44;1.77;;;0.57;;
23232;SDS011;11785;49.500;8.288;2024-03-23T06:20:09;0.68;;;0.68;;
23232;SDS011;11785;49.500;8.288;2024-03-23T06:22:35;1.13;;;0.73;;
23232;SDS011;11785;49.500;8.288;2024-03-23T06:25:01;1.35;;;0.55;;
23232;SDS011;11785;49.500;8.288;2024-03-23T06:27:27;0.70;;;0.47;;
23232;SDS011;11785;49.500;8.288;2024-03-23T06:29:53;2.08;;;0.70;;
23232;SDS011;11785;49.500;8.288;2024-03-23T06:32:18;2.20;;;0.70;;
23232;SDS011;11785;49.500;8.288;2024-03-23T06:34:45;1.67;;;0.60;;
23232;SDS011;11785;49.500;8.288;2024-03-23T06:37:11;0.40;;;0.40;;
23232;SDS011;11785;49.500;8.288;2024-03-23T06:39:38;0.50;;;0.50;;
23232;SDS011;11785;49.500;8.288;2024-03-23T06:42:04;0.70;;;0.60;;
23232;SDS011;11785;49.500;8.288;2024-03-23T06:44:30;0.50;;;0.50;;
23232;SDS011;11785;49.500;8.288;2024-03-23T06:46:56;0.95;;;0.52;;
23232;SDS011;11785;49.500;8.288;2024-03-23T06:49:22;0.57;;;0.45;;
23232;SDS011;11785;49.500;8.288;2024-03-23T06:51:48;0.30;;;0.30;;
23232;SDS011;11785;49.500;8.288;2024-03-23T06:54:14;0.70;;;0.40;;
23232;SDS011;11785;49.500;8.288;2024-03-23T06:56:41;0.90;;;0.70;;
23232;SDS011;11785;49.500;8.288;2024-03-23T06:59:07;0.30;;;0.30;;
23232;SDS011;11785;49.500;8.288;2024-03-23T07:01:32;0.40;;;0.40;;
23232;SDS011;11785;49.500;8.288;2024-03-23T07:03:58;0.32;;;0.30;;
23232;SDS011;11785;49.500;8.288;2024-03-23T07:06:23;1.17;;;0.30;;
23232;SDS011;11785;49.500;8.288;2024-03-23T07:08:49;0.40;;;0.40;;
23232;SDS011;11785;49.500;8.288;2024-03-23T07:11:18;0.75;;;0.40;;
23232;SDS011;11785;49.500;8.288;2024-03-23T07:13:51;1.45;;;0.73;;
23232;SDS011;11785;49.500;8.288;2024-03-23T07:16:17;1.80;;;0.52;;
23232;SDS011;11785;49.500;8.288;2024-03-23T07:18:43;2.60;;;0.80;;
23232;SDS011;11785;49.500;8.288;2024-03-23T07:21:08;2.75;;;1.67;;
23232;SDS011;11785;49.500;8.288;2024-03-23T07:23:34;2.22;;;0.70;;
23232;SDS011;11785;49.500;8.288;2024-03-23T07:26:01;7.18;;;1.40;;
23232;SDS011;11785;49.500;8.288;2024-03-23T07:28:27;3.28;;;1.30;;
23232;SDS011;11785;49.500;8.288;2024-03-23T07:33:31;2.45;;;0.98;;
23232;SDS011;11785;49.500;8.288;2024-03-23T07:35:57;3.60;;;1.20;;
23232;SDS011;11785;49.500;8.288;2024-03-23T07:38:24;2.92;;;1.00;;
23232;SDS011;11785;49.500;8.288;2024-03-23T07:40:51;1.63;;;1.10;;
23232;SDS011;11785;49.500;8.288;2024-03-23T07:43:21;3.13;;;1.23;;
23232;SDS011;11785;49.500;8.288;2024-03-23T07:45:52;3.33;;;1.10;;
23232;SDS011;11785;49.500;8.288;2024-03-23T07:48:18;3.75;;;1.38;;
23232;SDS011;11785;49.500;8.288;2024-03-23T07:50:43;4.93;;;1.05;;
23232;SDS011;11785;49.500;8.288;2024-03-23T07:53:09;4.95;;;1.20;;
23232;SDS011;11785;49.500;8.288;2024-03-23T07:55:35;4.28;;;1.20;;
23232;SDS011;11785;49.500;8.288;2024-03-23T07:58:00;3.25;;;1.10;;
23232;SDS011;11785;49.500;8.288;2024-03-23T08:00:26;3.10;;;1.20;;
23232;SDS011;11785;49.500;8.288;2024-03-23T08:02:51;4.95;;;1.05;;
23232;SDS011;11785;49.500;8.288;2024-03-23T08:05:17;5.03;;;1.40;;
23232;SDS011;11785;49.500;8.288;2024-03-23T08:07:42;3.75;;;1.10;;
23232;SDS011;11785;49.500;8.288;2024-03-23T08:10:08;4.20;;;1.50;;
23232;SDS011;11785;49.500;8.288;2024-03-23T08:12:34;5.97;;;1.40;;
23232;SDS011;11785;49.500;8.288;2024-03-23T08:14:59;4.07;;;1.13;;
23232;SDS011;11785;49.500;8.288;2024-03-23T08:17:25;4.20;;;1.13;;
23232;SDS011;11785;49.500;8.288;2024-03-23T08:19:50;7.18;;;1.50;;
23232;SDS011;11785;49.500;8.288;2024-03-23T08:22:17;1.90;;;1.25;;
23232;SDS011;11785;49.500;8.288;2024-03-23T08:24:44;4.70;;;1.23;;
23232;SDS011;11785;49.500;8.288;2024-03-23T08:27:09;2.42;;;1.30;;
23232;SDS011;11785;49.500;8.288;2024-03-23T08:29:35;3.80;;;1.60;;
23232;SDS011;11785;49.500;8.288;2024-03-23T08:32:00;4.10;;;1.40;;
23232;SDS011;11785;49.500;8.288;2024-03-23T08:34:26;3.92;;;1.92;;
23232;SDS011;11785;49.500;8.288;2024-03-23T08:36:51;3.38;;;1.60;;
23232;SDS011;11785;49.500;8.288;2024-03-23T08:39:17;6.35;;;1.52;;
23232;SDS011;11785;49.500;8.288;2024-03-23T08:41:43;6.68;;;2.28;;
23232;SDS011;11785;49.500;8.288;2024-03-23T08:44:11;15.32;;;2.00;;
23232;SDS011;11785;49.500;8.288;2024-03-23T08:46:36;4.95;;;1.70;;
23232;SDS011;11785;49.500;8.288;2024-03-23T08:49:02;6.47;;;1.92;;
23232;SDS011;11785;49.500;8.288;2024-03-23T08:51:27;4.80;;;1.65;;
23232;SDS011;11785;49.500;8.288;2024-03-23T08:53:53;6.97;;;1.95;;
23232;SDS011;11785;49.500;8.288;2024-03-23T08:56:18;8.45;;;2.95;;
23232;SDS011;11785;49.500;8.288;2024-03-23T08:58:44;7.82;;;2.38;;
23232;SDS011;11785;49.500;8.288;2024-03-23T09:01:11;8.90;;;2.47;;
23232;SDS011;11785;49.500;8.288;2024-03-23T09:03:40;12.18;;;2.63;;
23232;SDS011;11785;49.500;8.288;2024-03-23T09:06:07;5.32;;;2.15;;
23232;SDS011;11785;49.500;8.288;2024-03-23T09:08:33;8.20;;;2.75;;
23232;SDS011;11785;49.500;8.288;2024-03-23T09:11:04;10.63;;;3.25;;
23232;SDS011;11785;49.500;8.288;2024-03-23T09:13:31;10.43;;;3.20;;
23232;SDS011;11785;49.500;8.288;2024-03-23T09:16:00;7.25;;;2.42;;
23232;SDS011;11785;49.500;8.288;2024-03-23T09:18:26;6.85;;;2.67;;
23232;SDS011;11785;49.500;8.288;2024-03-23T09:20:52;5.95;;;2.60;;
23232;SDS011;11785;49.500;8.288;2024-03-23T09:23:21;6.57;;;2.58;;
23232;SDS011;11785;49.500;8.288;2024-03-23T09:25:50;15.15;;;2.97;;
23232;SDS011;11785;49.500;8.288;2024-03-23T09:28:18;4.65;;;2.40;;
23232;SDS011;11785;49.500;8.288;2024-03-23T09:30:44;11.80;;;2.33;;
23232;SDS011;11785;49.500;8.288;2024-03-23T09:33:10;9.27;;;2.33;;
23232;SDS011;11785;49.500;8.288;2024-03-23T09:35:37;7.05;;;2.40;;
23232;SDS011;11785;49.500;8.288;2024-03-23T09:38:06;9.60;;;2.53;;
23232;SDS011;11785;49.500;8.288;2024-03-23T09:40:39;7.25;;;2.58;;
23232;SDS011;11785;49.500;8.288;2024-03-23T09:43:07;10.45;;;2.33;;
23232;SDS011;11785;49.500;8.288;2024-03-23T09:45:34;8.52;;;2.33;;
23232;SDS011;11785;49.500;8.288;2024-03-23T09:48:03;5.75;;;2.28;;
23232;SDS011;11785;49.500;8.288;2024-03-23T09:50:29;6.70;;;2.38;;
23232;SDS011;11785;49.500;8.288;2024-03-23T09:52:55;9.13;;;2.47;;
23232;SDS011;11785;49.500;8.288;2024-03-23T09:55:21;8.43;;;1.85;;
23232;SDS011;11785;49.500;8.288;2024-03-23T09:57:46;7.85;;;1.92;;
23232;SDS011;11785;49.500;8.288;2024-03-23T10:00:12;11.40;;;2.47;;
23232;SDS011;11785;49.500;8.288;2024-03-23T10:02:38;5.82;;;2.03;;
23232;SDS011;11785;49.500;8.288;2024-03-23T10:05:04;4.72;;;1.90;;
23232;SDS011;11785;49.500;8.288;2024-03-23T10:07:30;5.45;;;1.70;;
23232;SDS011;11785;49.500;8.288;2024-03-23T10:09:56;6.07;;;1.92;;
23232;SDS011;11785;49.500;8.288;2024-03-23T10:12:22;4.35;;;1.38;;
23232;SDS011;11785;49.500;8.288;2024-03-23T10:14:48;9.50;;;2.00;;
23232;SDS011;11785;49.500;8.288;2024-03-23T10:19:44;6.30;;;1.80;;
23232;SDS011;11785;49.500;8.288;2024-03-23T10:22:13;4.80;;;1.67;;
23232;SDS011;11785;49.500;8.288;2024-03-23T10:24:40;6.05;;;2.10;;
23232;SDS011;11785;49.500;8.288;2024-03-23T10:27:06;8.60;;;2.35;;
23232;SDS011;11785;49.500;8.288;2024-03-23T10:29:32;6.35;;;1.92;;
23232;SDS011;11785;49.500;8.288;2024-03-23T10:32:08;7.18;;;1.85;;
23232;SDS011;11785;49.500;8.288;2024-03-23T10:34:35;5.47;;;1.70;;
23232;SDS011;11785;49.500;8.288;2024-03-23T10:37:01;7.35;;;1.95;;
23232;SDS011;11785;49.500;8.288;2024-03-23T10:39:30;4.38;;;1.75;;
23232;SDS011;11785;49.500;8.288;2024-03-23T10:42:01;9.25;;;1.70;;
23232;SDS011;11785;49.500;8.288;2024-03-23T10:44:28;8.05;;;1.92;;
23232;SDS011;11785;49.500;8.288;2024-03-23T10:46:56;4.57;;;1.70;;
23232;SDS011;11785;49.500;8.288;2024-03-23T10:49:29;6.20;;;1.90;;
23232;SDS011;11785;49.500;8.288;2024-03-23T10:52:02;6.67;;;1.93;;
23232;SDS011;11785;49.500;8.288;2024-03-23T10:54:32;7.63;;;1.85;;
23232;SDS011;11785;49.500;8.288;2024-03-23T10:57:14;11.00;;;2.05;;
23232;SDS011;11785;49.500;8.288;2024-03-23T10:59:54;4.47;;;1.63;;
23232;SDS011;11785;49.500;8.288;2024-03-23T11:02:21;3.70;;;1.60;;
23232;SDS011;11785;49.500;8.288;2024-03-23T11:04:47;8.63;;;2.30;;
23232;SDS011;11785;49.500;8.288;2024-03-23T11:07:31;6.63;;;1.98;;
23232;SDS011;11785;49.500;8.288;2024-03-23T11:09:58;4.50;;;1.60;;
23232;SDS011;11785;49.500;8.288;2024-03-23T11:12:26;9.55;;;1.83;;
23232;SDS011;11785;49.500;8.288;2024-03-23T11:17:35;6.45;;;2.00;;
23232;SDS011;11785;49.500;8.288;2024-03-23T11:20:05;10.02;;;1.92;;
23232;SDS011;11785;49.500;8.288;2024-03-23T11:25:21;6.85;;;2.38;;
23232;SDS011;11785;49.500;8.288;2024-03-23T11:27:51;6.05;;;2.00;;
23232;SDS011;11785;49.500;8.288;2024-03-23T11:30:21;6.75;;;2.15;;
23232;SDS011;11785;49.500;8.288;2024-03-23T11:32:57;6.70;;;2.08;;
23232;SDS011;11785;49.500;8.288;2024-03-23T11:40:47;4.88;;;1.60;;
23232;SDS011;11785;49.500;8.288;2024-03-23T11:43:14;27.65;;;13.80;;
23232;SDS011;11785;49.500;8.288;2024-03-23T11:45:42;6.63;;;1.90;;
23232;SDS011;11785;49.500;8.288;2024-03-23T11:48:13;2.97;;;1.40;;
23232;SDS011;11785;49.500;8.288;2024-03-23T11:50:44;3.97;;;1.60;;
23232;SDS011;11785;49.500;8.288;2024-03-23T11:53:14;5.18;;;1.63;;
23232;SDS011;11785;49.500;8.288;2024-03-23T11:55:48;4.50;;;1.67;;
23232;SDS011;11785;49.500;8.288;2024-03-23T11:58:18;2.22;;;1.10;;
23232;SDS011;11785;49.500;8.288;2024-03-23T12:00:59;7.75;;;1.60;;
23232;SDS011;11785;49.500;8.288;2024-03-23T12:03:29;8.00;;;2.00;;
23232;SDS011;11785;49.500;8.288;2024-03-23T12:05:56;4.90;;;2.05;;
23232;SDS011;11785;49.500;8.288;2024-03-23T12:08:32;6.07;;;1.55;;
23232;SDS011;11785;49.500;8.288;2024-03-23T12:11:06;6.53;;;2.40;;
23232;SDS011;11785;49.500;8.288;2024-03-23T12:13:39;4.90;;;1.27;;
23232;SDS011;11785;49.500;8.288;2024-03-23T12:16:11;2.63;;;0.85;;
23232;SDS011;11785;49.500;8.288;2024-03-23T12:18:39;0.88;;;0.70;;
23232;SDS011;11785;49.500;8.288;2024-03-23T12:21:06;3.05;;;0.80;;
23232;SDS011;11785;49.500;8.288;2024-03-23T12:23:32;2.75;;;0.77;;
23232;SDS011;11785;49.500;8.288;2024-03-23T12:25:58;1.65;;;0.80;;
23232;SDS011;11785;49.500;8.288;2024-03-23T12:28:23;1.25;;;0.75;;
23232;SDS011;11785;49.500;8.288;2024-03-23T12:30:50;2.15;;;0.80;;
23232;SDS011;11785;49.500;8.288;2024-03-23T12:33:17;3.40;;;0.90;;
23232;SDS011;11785;49.500;8.288;2024-03-23T12:35:43;3.45;;;1.35;;
23232;SDS011;11785;49.500;8.288;2024-03-23T12:38:08;3.47;;;1.30;;
23232;SDS011;11785;49.500;8.288;2024-03-23T12:40:34;5.22;;;1.38;;
23232;SDS011;11785;49.500;8.288;2024-03-23T12:42:59;3.20;;;1.25;;
23232;SDS011;11785;49.500;8.288;2024-03-23T12:45:25;2.17;;;0.80;;
23232;SDS011;11785;49.500;8.288;2024-03-23T12:47:51;1.75;;;0.60;;
23232;SDS011;11785;49.500;8.288;2024-03-23T12:50:20;2.58;;;0.63;;
23232;SDS011;11785;49.500;8.288;2024-03-23T12:52:46;6.30;;;0.40;;
23232;SDS011;11785;49.500;8.288;2024-03-23T12:55:12;1.35;;;0.60;;
23232;SDS011;11785;49.500;8.288;2024-03-23T12:57:38;2.15;;;0.70;;
23232;SDS011;11785;49.500;8.288;2024-03-23T13:00:03;2.65;;;0.80;;
23232;SDS011;11785;49.500;8.288;2024-03-23T13:02:30;1.67;;;0.50;;
23232;SDS011;11785;49.500;8.288;2024-03-23T13:04:55;2.60;;;0.98;;
23232;SDS011;11785;49.500;8.288;2024-03-23T13:07:22;1.85;;;0.47;;
23232;SDS011;11785;49.500;8.288;2024-03-23T13:09:51;3.28;;;0.68;;
23232;SDS011;11785;49.500;8.288;2024-03-23T13:12:18;1.20;;;0.57;;
23232;SDS011;11785;49.500;8.288;2024-03-23T13:14:44;0.70;;;0.60;;
23232;SDS011;11785;49.500;8.288;2024-03-23T13:17:10;1.83;;;0.70;;
23232;SDS011;11785;49.500;8.288;2024-03-23T13:19:36;0.88;;;0.65;;
23232;SDS011;11785;49.500;8.288;2024-03-23T13:22:02;1.75;;;0.73;;
23232;SDS011;11785;49.500;8.288;2024-03-23T13:29:32;1.85;;;0.47;;
23232;SDS011;11785;49.500;8.288;2024-03-23T13:31:59;2.65;;;0.60;;
23232;SDS011;11785;49.500;8.288;2024-03-23T13:34:25;3.30;;;0.80;;
23232;SDS011;11785;49.500;8.288;2024-03-23T13:36:50;2.70;;;0.50;;
23232;SDS011;11785;49.500;8.288;2024-03-23T13:39:16;4.47;;;0.57;;
23232;SDS011;11785;49.500;8.288;2024-03-23T13:41:45;2.78;;;0.77;;
23232;SDS011;11785;49.500;8.288;2024-03-23T13:44:11;2.20;;;0.80;;
23232;SDS011;11785;49.500;8.288;2024-03-23T13:46:39;2.45;;;0.90;;
23232;SDS011;11785;49.500;8.288;2024-03-23T13:49:05;0.88;;;0.50;;
23232;SDS011;11785;49.500;8.288;2024-03-23T13:51:31;1.65;;;0.68;;
23232;SDS011;11785;49.500;8.288;2024-03-23T13:53:57;2.15;;;0.90;;
23232;SDS011;11785;49.500;8.288;2024-03-23T13:56:25;2.70;;;0.93;;
23232;SDS011;11785;49.500;8.288;2024-03-23T13:58:53;1.85;;;0.77;;
23232;SDS011;11785;49.500;8.288;2024-03-23T14:01:19;2.67;;;0.70;;
23232;SDS011;11785;49.500;8.288;2024-03-23T14:03:44;2.50;;;0.70;;
23232;SDS011;11785;49.500;8.288;2024-03-23T14:06:10;1.80;;;0.80;;
23232;SDS011;11785;49.500;8.288;2024-03-23T14:08:37;0.65;;;0.60;;
23232;SDS011;11785;49.500;8.288;2024-03-23T14:11:05;2.88;;;0.80;;
23232;SDS011;11785;49.500;8.288;2024-03-23T15:12:10;2.55;;;0.80;;
23232;SDS011;11785;49.500;8.288;2024-03-23T15:14:36;5.40;;;1.30;;
23232;SDS011;11785;49.500;8.288;2024-03-23T15:17:02;1.50;;;0.60;;
23232;SDS011;11785;49.500;8.288;2024-03-23T15:19:32;0.50;;;0.50;;
23232;SDS011;11785;49.500;8.288;2024-03-23T15:21:57;0.95;;;0.60;;
23232;SDS011;11785;49.500;8.288;2024-03-23T15:24:23;3.53;;;1.20;;
23232;SDS011;11785;49.500;8.288;2024-03-23T15:26:49;1.88;;;1.05;;
23232;SDS011;11785;49.500;8.288;2024-03-23T15:29:17;1.95;;;1.33;;
23232;SDS011;11785;49.500;8.288;2024-03-23T15:31:42;3.33;;;1.33;;
23232;SDS011;11785;49.500;8.288;2024-03-23T15:34:08;3.88;;;1.00;;
23232;SDS011;11785;49.500;8.288;2024-03-23T15:36:37;5.13;;;1.25;;
23232;SDS011;11785;49.500;8.288;2024-03-23T15:39:05;4.32;;;1.42;;
23232;SDS011;11785;49.500;8.288;2024-03-23T15:41:31;1.70;;;1.02;;
23232;SDS011;11785;49.500;8.288;2024-03-23T15:43:59;2.67;;;1.20;;
23232;SDS011;11785;49.500;8.288;2024-03-23T15:46:24;2.67;;;0.82;;
23232;SDS011;11785;49.500;8.288;2024-03-23T15:48:50;1.42;;;0.70;;
23232;SDS011;11785;49.500;8.288;2024-03-23T15:51:16;0.80;;;0.55;;
23232;SDS011;11785;49.500;8.288;2024-03-23T15:53:43;1.25;;;0.60;;
23232;SDS011;11785;49.500;8.288;2024-03-23T15:56:08;1.10;;;0.50;;
23232;SDS011;11785;49.500;8.288;2024-03-23T15:58:35;3.80;;;0.60;;
23232;SDS011;11785;49.500;8.288;2024-03-23T16:01:01;2.53;;;0.57;;
23232;SDS011;11785;49.500;8.288;2024-03-23T16:03:27;1.25;;;0.80;;
23232;SDS011;11785;49.500;8.288;2024-03-23T16:05:56;1.10;;;0.50;;
23232;SDS011;11785;49.500;8.288;2024-03-23T16:10:52;0.82;;;0.60;;
23232;SDS011;11785;49.500;8.288;2024-03-23T16:13:18;0.60;;;0.45;;
23232;SDS011;11785;49.500;8.288;2024-03-23T16:15:44;1.17;;;0.50;;
23232;SDS011;11785;49.500;8.288;2024-03-23T16:18:11;1.85;;;0.75;;
23232;SDS011;11785;49.500;8.288;2024-03-23T16:20:37;1.75;;;0.77;;
23232;SDS011;11785;49.500;8.288;2024-03-23T16:23:03;2.08;;;0.60;;
23232;SDS011;11785;49.500;8.288;2024-03-23T16:25:29;2.35;;;0.90;;
23232;SDS011;11785;49.500;8.288;2024-03-23T16:27:55;2.85;;;0.68;;
23232;SDS011;11785;49.500;8.288;2024-03-23T16:30:21;0.70;;;0.50;;
23232;SDS011;11785;49.500;8.288;2024-03-23T16:32:47;3.05;;;0.95;;
23232;SDS011;11785;49.500;8.288;2024-03-23T16:35:13;3.30;;;1.05;;
23232;SDS011;11785;49.500;8.288;2024-03-23T16:37:40;1.15;;;0.55;;
23232;SDS011;11785;49.500;8.288;2024-03-23T16:40:06;1.63;;;0.85;;
23232;SDS011;11785;49.500;8.288;2024-03-23T16:42:34;2.15;;;0.70;;
23232;SDS011;11785;49.500;8.288;2024-03-23T16:45:00;1.40;;;0.70;;
23232;SDS011;11785;49.500;8.288;2024-03-23T16:47:26;3.38;;;0.68;;
23232;SDS011;11785;49.500;8.288;2024-03-23T16:49:52;2.78;;;0.60;;
23232;SDS011;11785;49.500;8.288;2024-03-23T16:52:18;1.33;;;0.60;;
23232;SDS011;11785;49.500;8.288;2024-03-23T16:54:44;1.65;;;0.45;;